Time;durP1;ratioP1;P1;durP2;ratioP2;P2;SDS_P1;SDS_P2;PMS_P1;PMS_P2;Temp;Humidity;BMP_temperature;BMP_pressure;BME280_temperature;BME280_humidity;BME280_pressure;Samples;Min_cycle;Max_cycle;Signal;HPM_P1;HPM_P2
2021/09/21 00:00:32;;;;;;;;;27.25;23.00;;;;;17.64;63.47;102231.28;4914353;28;45415;-58
2021/09/21 00:02:58;;;;;;;;;28.75;26.25;;;;;17.65;63.45;102229.47;4915856;28;45967;-58
2021/09/21 00:05:23;;;;;;;;;31.50;25.50;;;;;17.60;63.11;102237.75;4917022;28;45450;-58
2021/09/21 00:07:49;;;;;;;;;31.75;25.75;;;;;17.57;63.65;102238.81;4916755;28;45466;-58
2021/09/21 00:10:16;;;;;;;;;29.00;22.75;;;;;17.56;63.21;102236.25;4915606;28;45430;-58
2021/09/21 00:12:42;;;;;;;;;28.00;25.50;;;;;17.52;63.68;102245.38;4917411;28;46389;-58
2021/09/21 00:15:11;;;;;;;;;31.00;26.00;;;;;17.49;63.28;102246.44;4895777;28;45336;-58
2021/09/21 00:17:37;;;;;;;;;32.25;26.25;;;;;17.41;62.97;102253.22;4916986;28;45242;-57
2021/09/21 00:20:05;;;;;;;;;26.00;23.75;;;;;17.34;63.36;102255.41;4916460;28;45398;-58
2021/09/21 00:22:30;;;;;;;;;28.25;24.50;;;;;17.30;63.58;102251.25;4915682;28;46124;-58
2021/09/21 00:24:56;;;;;;;;;30.50;26.50;;;;;17.25;63.41;102250.66;4913208;28;45548;-58
2021/09/21 00:27:21;;;;;;;;;33.25;27.25;;;;;17.21;63.23;102260.66;4916243;28;45413;-58
2021/09/21 00:29:47;;;;;;;;;28.00;25.25;;;;;17.19;63.16;102257.22;4915154;28;45483;-59
2021/09/21 00:32:19;;;;;;;;;26.75;22.75;;;;;17.17;63.34;102252.97;4919782;28;45991;-58
2021/09/21 00:34:45;;;;;;;;;28.75;27.00;;;;;17.19;63.57;102256.38;4916862;28;45427;-58
2021/09/21 00:37:13;;;;;;;;;26.00;23.50;;;;;17.20;63.07;102256.28;4921111;28;45472;-59
2021/09/21 00:39:40;;;;;;;;;28.75;26.00;;;;;17.20;62.79;102248.28;4918424;28;45328;-58
2021/09/21 00:42:06;;;;;;;;;28.00;23.75;;;;;17.18;62.88;102254.66;4920058;28;45393;-58
2021/09/21 00:44:34;;;;;;;;;31.75;25.50;;;;;17.16;62.71;102257.44;4917705;28;45317;-58
2021/09/21 00:47:02;;;;;;;;;31.00;27.25;;;;;17.14;62.63;102255.78;4920016;28;45360;-58
2021/09/21 00:49:27;;;;;;;;;25.50;24.00;;;;;17.15;62.99;102254.88;4918705;28;45414;-58
2021/09/21 00:51:54;;;;;;;;;35.25;30.25;;;;;17.16;62.96;102248.59;4920302;28;45519;-58
2021/09/21 00:54:20;;;;;;;;;27.75;25.50;;;;;17.13;62.57;102248.78;4916801;28;45399;-58
2021/09/21 00:56:45;;;;;;;;;32.00;25.75;;;;;17.13;62.81;102240.78;4918214;28;45463;-58
2021/09/21 00:59:11;;;;;;;;;34.50;26.25;;;;;17.11;62.51;102240.88;4917784;28;45505;-58
2021/09/21 01:01:37;;;;;;;;;33.25;24.25;;;;;17.06;62.89;102250.09;4919875;28;45419;-58
2021/09/21 01:04:05;;;;;;;;;33.75;25.75;;;;;16.99;62.66;102260.31;4918426;28;45429;-58
2021/09/21 01:06:30;;;;;;;;;34.50;27.75;;;;;16.94;63.05;102265.91;4920025;28;45468;-58
2021/09/21 01:08:56;;;;;;;;;32.50;27.50;;;;;16.90;62.81;102271.50;4919370;28;45517;-58
2021/09/21 01:11:22;;;;;;;;;29.75;27.50;;;;;16.86;62.98;102273.50;4919101;28;46221;-58
2021/09/21 01:13:48;;;;;;;;;34.00;31.25;;;;;16.83;63.19;102271.03;4918162;28;45401;-58
2021/09/21 01:16:13;;;;;;;;;35.50;27.75;;;;;16.85;63.29;102269.13;4918444;28;45351;-58
2021/09/21 01:18:39;;;;;;;;;29.75;28.75;;;;;16.86;63.20;102262.84;4918375;28;45346;-58
2021/09/21 01:21:10;;;;;;;;;31.00;27.75;;;;;16.87;63.20;102269.88;4915782;28;45373;-59
2021/09/21 01:23:55;;;;;;;;;31.25;28.50;;;;;16.84;62.76;102271.88;4918247;28;45185;-58
2021/09/21 01:26:22;;;;;;;;;33.00;28.00;;;;;16.79;63.11;102266.84;4916535;28;45308;-58
2021/09/21 01:28:48;;;;;;;;;31.25;27.50;;;;;16.82;63.02;102271.97;4919851;28;45394;-58
2021/09/21 01:31:14;;;;;;;;;29.25;27.00;;;;;16.84;62.92;102271.88;4906845;28;45519;-59
2021/09/21 01:33:43;;;;;;;;;34.75;30.00;;;;;16.85;63.07;102281.59;4915668;28;46528;-59
2021/09/21 01:36:08;;;;;;;;;27.00;25.25;;;;;16.86;62.96;102264.66;4916004;28;45579;-59
2021/09/21 01:38:34;;;;;;;;;32.75;28.25;;;;;16.87;62.97;102275.22;4917836;28;45286;-59
2021/09/21 01:40:59;;;;;;;;;33.00;30.75;;;;;16.91;62.94;102283.88;4917059;28;45828;-59
2021/09/21 01:43:24;;;;;;;;;32.75;30.50;;;;;16.89;62.96;102285.75;4918606;28;45646;-59
2021/09/21 01:45:50;;;;;;;;;30.00;28.50;;;;;16.87;62.76;102282.34;4918391;28;45411;-59
2021/09/21 01:48:15;;;;;;;;;31.25;25.75;;;;;16.85;62.74;102297.56;4922474;28;45331;-58
2021/09/21 01:51:27;;;;;;;;;34.00;29.00;;;;;16.84;62.82;102288.72;4916799;28;46230;-59
2021/09/21 02:01:07;;;;;;;;;30.25;26.25;;;;;16.84;62.82;102306.50;4916042;28;45402;-58
2021/09/21 02:03:34;;;;;;;;;30.50;28.00;;;;;16.79;62.81;102298.78;4917208;28;45218;-59
2021/09/21 02:06:00;;;;;;;;;37.00;33.00;;;;;16.76;63.06;102295.44;4916052;28;45432;-59
2021/09/21 02:08:25;;;;;;;;;35.25;31.75;;;;;16.74;62.99;102301.69;4919886;28;45606;-59
2021/09/21 02:10:51;;;;;;;;;33.50;30.50;;;;;16.73;62.92;102307.13;4919436;28;46161;-59
2021/09/21 02:13:16;;;;;;;;;33.75;29.50;;;;;16.75;63.12;102310.56;4919512;28;45416;-59
2021/09/21 02:15:42;;;;;;;;;33.25;28.25;;;;;16.74;62.98;102307.03;4920203;28;45402;-59
2021/09/21 02:18:08;;;;;;;;;34.00;30.50;;;;;16.74;63.15;102308.81;4915955;28;45419;-59
2021/09/21 02:20:33;;;;;;;;;35.00;31.75;;;;;16.71;62.95;102317.84;4916896;28;45562;-59
2021/09/21 02:22:59;;;;;;;;;39.25;34.00;;;;;16.68;62.86;102309.19;4916214;28;45456;-58
2021/09/21 02:25:25;;;;;;;;;37.75;32.00;;;;;16.60;62.89;102306.97;4916390;28;45470;-59
2021/09/21 02:27:50;;;;;;;;;34.50;30.25;;;;;16.59;63.23;102315.03;4916525;28;45374;-59
2021/09/21 02:30:16;;;;;;;;;43.25;33.50;;;;;16.60;63.16;102311.44;4916462;28;46219;-58
2021/09/21 02:32:41;;;;;;;;;39.75;32.75;;;;;16.61;63.15;102313.16;4917605;28;45249;-58
2021/09/21 02:35:07;;;;;;;;;36.25;31.25;;;;;16.61;63.26;102324.66;4918887;28;45222;-58
2021/09/21 02:37:33;;;;;;;;;41.25;34.00;;;;;16.59;63.27;102318.56;4919971;28;45244;-58
2021/09/21 02:40:00;;;;;;;;;31.50;31.25;;;;;16.55;63.25;102316.19;4919356;28;45331;-58
2021/09/21 02:42:26;;;;;;;;;46.75;34.25;;;;;16.50;63.33;102315.56;4915872;28;45233;-58
2021/09/21 02:44:52;;;;;;;;;36.25;33.25;;;;;16.50;63.51;102312.91;4915950;28;45433;-59
2021/09/21 02:47:17;;;;;;;;;35.50;32.75;;;;;16.49;63.38;102306.75;4916122;28;45277;-58
2021/09/21 02:49:43;;;;;;;;;38.75;32.00;;;;;16.44;63.31;102303.53;4915688;28;45441;-58
2021/09/21 02:52:08;;;;;;;;;43.25;33.25;;;;;16.39;63.43;102300.25;4915832;28;45337;-59
2021/09/21 02:54:34;;;;;;;;;40.25;34.25;;;;;16.37;63.58;102310.16;4916504;28;45398;-58
2021/09/21 02:56:59;;;;;;;;;40.75;34.50;;;;;16.37;63.65;102299.50;4916824;28;45487;-59
2021/09/21 02:59:25;;;;;;;;;33.50;28.25;;;;;16.37;63.46;102311.00;4913294;28;45442;-58
2021/09/21 03:01:50;;;;;;;;;51.50;36.50;;;;;16.33;63.75;102322.75;4916751;28;45364;-59
2021/09/21 03:04:20;;;;;;;;;43.25;35.25;;;;;16.33;63.99;102324.56;4915157;28;45457;-59
2021/09/21 03:06:49;;;;;;;;;36.75;30.00;;;;;16.36;63.87;102324.38;4918700;28;45541;-58
2021/09/21 03:12:13;;;;;;;;;42.00;35.75;;;;;16.33;63.89;102330.72;4916669;28;45447;-58
2021/09/21 03:17:27;;;;;;;;;42.50;35.75;;;;;16.28;63.61;102340.78;4914904;28;45396;-58
2021/09/21 03:19:56;;;;;;;;;46.25;35.50;;;;;16.22;63.72;102338.47;4915546;28;46332;-59
2021/09/21 03:22:22;;;;;;;;;39.25;34.00;;;;;16.23;63.66;102342.00;4915488;28;45484;-58
2021/09/21 03:24:49;;;;;;;;;48.00;35.25;;;;;16.22;63.95;102329.66;4915483;28;45272;-59
2021/09/21 03:27:15;;;;;;;;;42.75;37.00;;;;;16.22;63.96;102343.78;4915870;28;45178;-59
2021/09/21 03:29:40;;;;;;;;;42.00;33.00;;;;;16.18;63.75;102347.56;4916510;28;45230;-58
2021/09/21 03:32:06;;;;;;;;;42.00;35.50;;;;;16.19;64.04;102343.94;4917240;28;45568;-59
2021/09/21 03:34:32;;;;;;;;;47.00;38.25;;;;;16.25;63.76;102345.41;4916654;28;45368;-59
2021/09/21 03:36:58;;;;;;;;;40.75;34.50;;;;;16.29;63.96;102341.66;4918690;28;45513;-59
2021/09/21 03:39:24;;;;;;;;;48.25;37.25;;;;;16.30;63.51;102341.56;4915053;28;46090;-59
2021/09/21 03:41:49;;;;;;;;;43.00;34.75;;;;;16.29;63.74;102341.66;4915018;28;45295;-59
2021/09/21 03:44:15;;;;;;;;;41.25;32.75;;;;;16.29;63.70;102337.19;4915200;28;45347;-59
2021/09/21 03:46:41;;;;;;;;;47.25;36.00;;;;;16.31;63.50;102345.06;4915167;28;45369;-59
2021/09/21 03:49:06;;;;;;;;;38.50;34.50;;;;;16.32;63.50;102337.00;4915022;28;46274;-59
2021/09/21 03:51:32;;;;;;;;;43.00;36.50;;;;;16.33;63.80;102335.19;4915007;28;45284;-59
2021/09/21 03:53:57;;;;;;;;;45.75;35.25;;;;;16.29;63.52;102339.00;4915093;28;45322;-59
2021/09/21 03:56:23;;;;;;;;;49.75;36.00;;;;;16.30;63.69;102341.56;4916592;28;45440;-59
2021/09/21 03:58:48;;;;;;;;;42.50;34.25;;;;;16.29;63.41;102350.47;4914820;28;46048;-59
2021/09/21 04:01:14;;;;;;;;;50.25;39.00;;;;;16.26;63.38;102353.28;4914437;28;45385;-59
2021/09/21 04:03:39;;;;;;;;;49.00;39.00;;;;;16.22;63.63;102349.13;4916361;28;45498;-59
2021/09/21 04:06:05;;;;;;;;;41.50;35.00;;;;;16.19;63.85;102352.81;4915411;28;45362;-59
2021/09/21 04:08:30;;;;;;;;;50.25;38.50;;;;;16.15;63.72;102359.25;4917969;28;45211;-59
2021/09/21 04:10:55;;;;;;;;;51.25;38.50;;;;;16.08;63.66;102367.66;4914874;28;45248;-59
2021/09/21 04:13:21;;;;;;;;;48.00;39.00;;;;;16.06;64.11;102367.75;4915537;28;45393;-59
2021/09/21 04:15:46;;;;;;;;;50.25;41.00;;;;;16.02;64.20;102365.31;4913894;28;45448;-59
2021/09/21 04:18:12;;;;;;;;;44.25;38.00;;;;;15.98;63.94;102374.44;4917076;28;46481;-59
2021/09/21 04:20:37;;;;;;;;;50.50;40.00;;;;;15.94;64.13;102378.19;4914636;28;45531;-58
2021/09/21 04:23:03;;;;;;;;;45.50;35.75;;;;;15.92;64.16;102372.97;4915279;28;45453;-59
2021/09/21 04:25:30;;;;;;;;;48.00;38.00;;;;;15.93;64.41;102380.00;4914304;28;45491;-59
2021/09/21 04:27:56;;;;;;;;;46.50;38.75;;;;;15.91;64.22;102381.88;4915821;28;45602;-59
2021/09/21 04:30:22;;;;;;;;;36.00;29.75;;;;;15.87;64.34;102381.19;4913766;28;45428;-60
2021/09/21 04:32:49;;;;;;;;;51.75;39.00;;;;;15.87;64.26;102388.28;4917496;28;45241;-59
2021/09/21 04:35:15;;;;;;;;;45.50;38.25;;;;;15.87;64.74;102391.81;4914953;28;45237;-59
2021/09/21 04:37:41;;;;;;;;;50.75;38.75;;;;;15.85;64.25;102387.53;4918071;28;45259;-59
2021/09/21 04:40:07;;;;;;;;;50.50;41.25;;;;;15.84;64.69;102391.13;4916278;28;45303;-59
2021/09/21 04:42:33;;;;;;;;;49.00;39.00;;;;;15.83;64.37;102394.75;4916101;28;45234;-59
2021/09/21 04:44:58;;;;;;;;;48.00;38.75;;;;;15.79;64.32;102393.19;4914044;28;45320;-59
2021/09/21 04:47:24;;;;;;;;;48.25;38.75;;;;;15.78;64.18;102388.81;4917710;28;45339;-58
2021/09/21 04:49:50;;;;;;;;;49.25;39.50;;;;;15.70;64.12;102383.91;4915493;28;45249;-59
2021/09/21 04:52:16;;;;;;;;;53.25;39.75;;;;;15.66;64.27;102382.38;4918983;28;45350;-59
2021/09/21 04:54:42;;;;;;;;;50.00;39.25;;;;;15.63;64.13;102382.53;4915846;28;45542;-59
2021/09/21 04:57:08;;;;;;;;;56.25;44.00;;;;;15.60;64.19;102393.28;4914273;28;46149;-59
2021/09/21 04:59:33;;;;;;;;;50.25;38.00;;;;;15.57;63.98;102391.69;4913727;28;45181;-58
2021/09/21 05:01:59;;;;;;;;;46.25;36.00;;;;;15.50;63.49;102386.78;4915444;28;45229;-58
2021/09/21 05:04:24;;;;;;;;;50.00;39.25;;;;;15.42;63.73;102386.31;4914562;28;45169;-58
2021/09/21 05:06:50;;;;;;;;;50.00;37.25;;;;;15.41;63.77;102387.28;4917707;28;45292;-58
2021/09/21 05:09:15;;;;;;;;;38.50;35.00;;;;;15.38;63.67;102398.03;4915379;28;45414;-59
2021/09/21 05:11:44;;;;;;;;;49.00;38.25;;;;;15.35;63.63;102404.38;4915394;28;45314;-58
2021/09/21 05:14:10;;;;;;;;;50.25;37.75;;;;;15.26;63.50;102395.09;4914552;28;45727;-59
2021/09/21 05:16:35;;;;;;;;;42.50;36.50;;;;;15.23;64.01;102397.91;4916590;28;45395;-59
2021/09/21 05:19:01;;;;;;;;;44.75;34.75;;;;;15.22;63.52;102401.50;4918263;28;45489;-58
2021/09/21 05:21:26;;;;;;;;;38.25;34.25;;;;;15.21;63.64;102399.78;4922001;28;45480;-59
2021/09/21 05:23:51;;;;;;;;;44.50;36.25;;;;;15.23;63.21;102397.03;4919606;28;45682;-58
2021/09/21 05:26:17;;;;;;;;;45.75;35.00;;;;;15.19;63.20;102401.66;4916935;28;46045;-59
2021/09/21 05:28:43;;;;;;;;;40.25;33.00;;;;;15.21;63.53;102409.53;4916922;28;45531;-59
2021/09/21 05:31:09;;;;;;;;;33.25;32.50;;;;;15.20;63.75;102411.34;4899768;28;45342;-60
2021/09/21 05:33:34;;;;;;;;;44.00;37.25;;;;;15.20;63.78;102421.97;4916972;28;45515;-59
2021/09/21 05:36:00;;;;;;;;;45.75;36.50;;;;;15.18;63.32;102418.53;4918124;28;46136;-59
2021/09/21 05:38:26;;;;;;;;;38.50;34.25;;;;;15.12;63.57;102423.28;4917074;28;45362;-59
2021/09/21 05:40:52;;;;;;;;;50.00;37.25;;;;;15.10;64.03;102430.50;4920015;28;45328;-61
2021/09/21 05:43:18;;;;;;;;;40.00;35.00;;;;;15.07;63.74;102434.13;4918010;28;45462;-61
2021/09/21 05:45:43;;;;;;;;;34.50;31.25;;;;;14.99;63.53;102437.19;4921212;28;45320;-59
2021/09/21 05:48:09;;;;;;;;;45.75;40.00;;;;;14.92;63.67;102430.47;4919149;28;45348;-59
2021/09/21 05:50:34;;;;;;;;;44.25;35.50;;;;;14.91;63.66;102442.00;4919412;28;45245;-59
2021/09/21 05:53:00;;;;;;;;;37.50;33.25;;;;;14.88;64.01;102444.84;4917270;28;45380;-59
2021/09/21 05:55:27;;;;;;;;;39.50;35.25;;;;;14.87;63.70;102442.25;4919288;28;46063;-59
2021/09/21 05:57:53;;;;;;;;;36.50;32.00;;;;;14.86;63.67;102445.84;4916154;28;45252;-59
2021/09/21 06:00:19;;;;;;;;;39.50;34.50;;;;;14.84;63.51;102451.22;4917609;28;45525;-60
2021/09/21 06:02:44;;;;;;;;;38.75;35.50;;;;;14.82;63.82;102454.88;4916208;28;45442;-60
2021/09/21 06:05:10;;;;;;;;;52.75;35.50;;;;;14.84;63.81;102455.66;4919613;28;45420;-60
2021/09/21 06:07:46;;;;;;;;;41.50;36.50;;;;;14.86;63.78;102452.03;4919173;28;45312;-60
2021/09/21 06:10:11;;;;;;;;;45.50;38.50;;;;;14.90;63.52;102455.38;4915861;28;45426;-60
2021/09/21 06:12:37;;;;;;;;;39.00;35.25;;;;;14.89;63.54;102453.66;4916673;28;45322;-61
2021/09/21 06:15:03;;;;;;;;;49.00;38.75;;;;;14.89;63.13;102462.47;4916932;28;46030;-62
2021/09/21 06:17:28;;;;;;;;;48.50;39.25;;;;;14.94;63.05;102470.22;4914341;28;45425;-61
2021/09/21 06:19:54;;;;;;;;;50.25;40.50;;;;;15.01;62.74;102469.81;4915602;28;45467;-61
2021/09/21 06:22:19;;;;;;;;;50.25;39.25;;;;;15.04;62.41;102472.31;4919194;28;45463;-59
2021/09/21 06:24:45;;;;;;;;;44.75;39.25;;;;;15.05;62.35;102474.03;4920334;28;45834;-60
2021/09/21 06:27:10;;;;;;;;;46.50;39.00;;;;;15.10;62.39;102478.25;4918178;28;45613;-60
2021/09/21 06:29:36;;;;;;;;;43.00;35.50;;;;;15.10;62.08;102479.13;4914609;28;45319;-60
2021/09/21 06:32:02;;;;;;;;;40.50;33.50;;;;;15.13;62.29;102484.25;4916226;28;45281;-60
2021/09/21 06:34:27;;;;;;;;;39.25;35.25;;;;;15.15;62.12;102493.00;4915766;28;45185;-60
2021/09/21 06:36:54;;;;;;;;;37.25;33.25;;;;;15.21;61.53;102497.16;4918013;28;45269;-60
2021/09/21 06:39:21;;;;;;;;;47.00;33.00;;;;;15.16;61.72;102494.72;4915945;28;45402;-59
2021/09/21 06:41:47;;;;;;;;;37.00;32.75;;;;;15.14;61.56;102501.91;4915998;28;45287;-60
2021/09/21 06:44:13;;;;;;;;;39.75;33.75;;;;;15.16;61.60;102500.03;4916329;28;45470;-60
2021/09/21 06:46:38;;;;;;;;;32.00;29.75;;;;;15.18;61.23;102514.09;4918094;28;45458;-59
2021/09/21 06:49:04;;;;;;;;;37.00;32.00;;;;;15.16;61.25;102513.28;4921194;28;45554;-61
2021/09/21 06:51:31;;;;;;;;;35.25;30.25;;;;;15.16;60.86;102509.78;4915737;28;45390;-60
2021/09/21 06:53:57;;;;;;;;;26.75;25.00;;;;;15.07;60.61;102513.75;4917034;28;45446;-60
2021/09/21 06:56:27;;;;;;;;;25.75;25.75;;;;;15.03;60.74;102518.38;4916857;28;45386;-60
2021/09/21 06:58:53;;;;;;;;;29.75;23.25;;;;;15.06;61.17;102518.22;4916546;28;45281;-59
2021/09/21 07:01:18;;;;;;;;;58.00;41.25;;;;;15.08;60.61;102529.59;4917862;28;45319;-59
2021/09/21 07:03:44;;;;;;;;;29.50;25.00;;;;;15.11;60.68;102525.09;4918052;28;45317;-59
2021/09/21 07:06:10;;;;;;;;;33.75;25.25;;;;;15.15;60.69;102526.66;4915493;28;45310;-60
2021/09/21 07:08:36;;;;;;;;;26.50;22.75;;;;;15.19;60.60;102530.88;4917402;28;45380;-61
2021/09/21 07:11:01;;;;;;;;;27.50;24.50;;;;;15.22;60.28;102533.38;4915611;28;45275;-60
2021/09/21 07:13:27;;;;;;;;;21.00;19.75;;;;;15.24;60.25;102537.66;4915106;28;45322;-59
2021/09/21 07:15:52;;;;;;;;;22.75;21.50;;;;;15.27;59.95;102550.81;4914925;28;45300;-59
2021/09/21 07:18:18;;;;;;;;;29.00;23.25;;;;;15.29;59.99;102543.63;4917256;28;45291;-60
2021/09/21 07:20:43;;;;;;;;;21.00;17.75;;;;;15.32;59.43;102547.91;4915804;28;45298;-60
2021/09/21 07:23:09;;;;;;;;;27.00;23.75;;;;;15.34;59.76;102541.59;4918946;28;45540;-60
2021/09/21 07:25:34;;;;;;;;;24.75;20.25;;;;;15.38;59.37;102549.41;4916194;28;45278;-62
2021/09/21 07:28:02;;;;;;;;;18.75;17.75;;;;;15.43;58.72;102550.88;4920212;28;45268;-61
2021/09/21 07:30:30;;;;;;;;;21.00;18.00;;;;;15.47;58.89;102562.19;4914896;28;46539;-59
2021/09/21 07:32:55;;;;;;;;;21.75;18.25;;;;;15.50;58.00;102568.22;4915216;28;46130;-60
2021/09/21 07:35:21;;;;;;;;;22.00;18.00;;;;;15.53;57.71;102567.22;4916371;28;45842;-61
2021/09/21 07:37:46;;;;;;;;;21.75;17.50;;;;;15.52;57.77;102570.81;4919996;28;45494;-60
2021/09/21 07:40:12;;;;;;;;;24.00;18.50;;;;;15.51;57.18;102577.91;4917124;28;45603;-60
2021/09/21 07:42:40;;;;;;;;;20.00;16.75;;;;;15.53;57.54;102573.38;4914900;28;45525;-61
2021/09/21 07:45:07;;;;;;;;;21.00;16.00;;;;;15.56;57.28;102575.91;4914377;28;45338;-61
2021/09/21 07:47:33;;;;;;;;;18.25;17.00;;;;;15.60;57.26;102582.75;4915027;28;45381;-61
2021/09/21 07:49:59;;;;;;;;;21.00;16.50;;;;;15.64;56.90;102578.19;4914842;28;45463;-60
2021/09/21 07:52:25;;;;;;;;;16.25;14.25;;;;;15.63;56.58;102569.34;4914769;28;45475;-60
2021/09/21 07:54:51;;;;;;;;;19.50;16.25;;;;;15.61;56.33;102570.38;4916438;28;45482;-60
2021/09/21 07:57:16;;;;;;;;;18.00;14.75;;;;;15.61;56.05;102576.53;4914673;28;45480;-60
2021/09/21 07:59:42;;;;;;;;;19.00;15.00;;;;;15.69;56.19;102581.47;4914531;28;45464;-60
2021/09/21 08:02:09;;;;;;;;;12.00;10.50;;;;;15.74;55.65;102574.13;4914516;28;46187;-59
2021/09/21 08:04:37;;;;;;;;;14.25;13.50;;;;;15.75;55.00;102577.63;4914540;28;45260;-60
2021/09/21 08:07:03;;;;;;;;;17.00;14.00;;;;;15.70;55.24;102577.84;4919993;28;45415;-59
2021/09/21 08:09:28;;;;;;;;;17.25;14.00;;;;;15.72;55.26;102588.41;4916899;28;45277;-60
2021/09/21 08:11:54;;;;;;;;;17.25;14.75;;;;;15.70;55.04;102584.97;4914587;28;45351;-59
2021/09/21 08:14:19;;;;;;;;;13.75;13.75;;;;;15.75;55.23;102590.91;4915162;28;45498;-61
2021/09/21 08:16:45;;;;;;;;;15.50;12.75;;;;;15.82;54.86;102594.97;4916202;28;45349;-60
2021/09/21 08:19:10;;;;;;;;;14.50;11.75;;;;;15.84;54.55;102585.97;4916744;28;45319;-60
2021/09/21 08:21:36;;;;;;;;;15.75;13.75;;;;;15.85;54.65;102586.84;4914282;28;45436;-61
2021/09/21 08:24:02;;;;;;;;;13.00;11.00;;;;;15.90;54.62;102592.78;4914804;28;45276;-61
2021/09/21 08:26:28;;;;;;;;;15.25;13.50;;;;;16.00;54.53;102590.50;4915597;28;45437;-60
2021/09/21 08:28:53;;;;;;;;;13.50;11.50;;;;;16.06;54.30;102591.03;4915983;28;45809;-60
2021/09/21 08:31:18;;;;;;;;;13.00;13.00;;;;;16.10;54.25;102589.91;4917587;28;45350;-59
2021/09/21 08:33:44;;;;;;;;;12.00;12.00;;;;;16.18;53.41;102602.81;4917464;28;45435;-60
2021/09/21 08:36:09;;;;;;;;;13.50;11.50;;;;;16.18;53.96;102590.38;4914243;28;45427;-60
2021/09/21 08:38:35;;;;;;;;;15.75;13.00;;;;;16.29;54.20;102605.78;4914261;28;45534;-60
2021/09/21 08:41:00;;;;;;;;;14.75;10.75;;;;;16.30;53.30;102596.84;4914205;28;46137;-59
2021/09/21 08:43:26;;;;;;;;;12.25;12.25;;;;;16.29;53.10;102610.25;4914182;28;45508;-61
2021/09/21 08:45:51;;;;;;;;;15.25;10.75;;;;;16.35;53.26;102608.13;4913835;28;45583;-59
2021/09/21 08:48:17;;;;;;;;;8.50;8.50;;;;;16.38;52.77;102607.94;4915420;28;45456;-59
2021/09/21 08:50:42;;;;;;;;;10.25;9.00;;;;;16.40;52.03;102606.03;4916537;28;45904;-59
2021/09/21 08:53:08;;;;;;;;;9.75;9.00;;;;;16.44;52.68;102615.59;4918176;28;45387;-60
2021/09/21 08:55:33;;;;;;;;;9.75;9.00;;;;;16.51;52.41;102613.47;4919884;28;45371;-59
2021/09/21 08:57:59;;;;;;;;;12.25;9.50;;;;;16.62;52.72;102623.50;4917274;28;45406;-60
2021/09/21 09:00:30;;;;;;;;;7.75;6.25;;;;;16.72;51.99;102619.44;4917923;28;45344;-60
2021/09/21 09:03:12;;;;;;;;;10.00;10.00;;;;;16.79;52.10;102622.59;4917456;28;45170;-60
2021/09/21 09:05:44;;;;;;;;;7.75;7.00;;;;;16.85;51.64;102616.94;4915452;28;45401;-60
2021/09/21 09:08:11;;;;;;;;;10.50;8.75;;;;;16.89;51.53;102613.16;4923308;28;45272;-59
2021/09/21 09:10:36;;;;;;;;;9.75;6.50;;;;;16.92;51.27;102619.19;4916748;28;46245;-59
2021/09/21 09:13:02;;;;;;;;;13.25;7.50;;;;;16.95;51.23;102615.50;4925570;28;45344;-60
2021/09/21 09:15:28;;;;;;;;;9.00;8.00;;;;;16.98;51.67;102610.88;4921744;28;45454;-59
2021/09/21 09:17:56;;;;;;;;;10.00;10.00;;;;;17.03;51.23;102622.09;4916414;28;45272;-60
2021/09/21 09:20:40;;;;;;;;;10.00;9.25;;;;;17.05;51.21;102619.34;4916067;28;45344;-59
2021/09/21 09:23:08;;;;;;;;;12.25;8.50;;;;;17.08;51.31;102616.53;4916212;28;45358;-60
2021/09/21 09:26:00;;;;;;;;;8.25;6.25;;;;;17.11;51.10;102620.81;4918216;28;45447;-61
2021/09/21 09:28:27;;;;;;;;;19.25;14.00;;;;;17.16;51.48;102614.28;4915951;28;45238;-60
2021/09/21 09:30:55;;;;;;;;;14.00;11.50;;;;;17.23;50.78;102628.97;4918121;28;45388;-60
2021/09/21 09:33:21;;;;;;;;;14.75;11.25;;;;;17.26;50.98;102626.13;4915831;28;45614;-60
2021/09/21 09:35:49;;;;;;;;;13.25;12.75;;;;;17.29;50.93;102625.06;4918234;28;45489;-59
2021/09/21 09:38:20;;;;;;;;;16.25;11.50;;;;;17.32;51.19;102630.25;4916022;28;45437;-62
2021/09/21 09:40:53;;;;;;;;;14.00;11.50;;;;;17.40;50.77;102627.13;4918154;28;45535;-60
2021/09/21 09:43:25;;;;;;;;;14.00;10.75;;;;;17.38;50.49;102615.69;4916579;28;45403;-60
2021/09/21 09:45:53;;;;;;;;;11.50;11.50;;;;;17.39;50.56;102626.28;4915840;28;45341;-60
2021/09/21 09:48:20;;;;;;;;;16.25;15.00;;;;;17.45;49.75;102628.56;4916250;28;45548;-60
2021/09/21 09:50:48;;;;;;;;;17.25;16.00;;;;;17.44;50.23;102623.31;4919375;28;45534;-61
2021/09/21 09:53:25;;;;;;;;;10.75;10.50;;;;;17.48;50.28;102614.22;4914246;28;45735;-61
2021/09/21 09:55:58;;;;;;;;;16.75;15.50;;;;;17.56;51.02;102627.97;4916121;28;45404;-61
2021/09/21 09:58:24;;;;;;;;;13.75;12.50;;;;;17.65;50.53;102622.06;4915502;28;45528;-61
2021/09/21 10:00:54;;;;;;;;;17.50;15.50;;;;;17.76;50.51;102624.13;4913652;28;45656;-62
2021/09/21 10:03:20;;;;;;;;;21.25;16.75;;;;;17.84;50.54;102627.19;4915823;28;46568;-61
2021/09/21 10:05:45;;;;;;;;;15.25;13.25;;;;;17.88;50.42;102623.41;4916919;28;45530;-61
2021/09/21 10:08:11;;;;;;;;;18.50;14.75;;;;;17.94;50.39;102617.72;4921729;28;45526;-61
2021/09/21 10:10:40;;;;;;;;;17.00;16.75;;;;;18.03;50.03;102619.81;4915784;28;45469;-61
2021/09/21 10:13:11;;;;;;;;;18.25;16.25;;;;;18.07;49.60;102621.34;4918584;28;45323;-60
2021/09/21 10:15:39;;;;;;;;;19.75;18.50;;;;;18.11;49.81;102627.34;4915727;28;45400;-61
2021/09/21 10:18:05;;;;;;;;;18.50;16.75;;;;;18.18;49.50;102626.03;4919187;28;45325;-61
2021/09/21 10:20:30;;;;;;;;;17.00;15.25;;;;;18.22;49.33;102616.88;4917867;28;45220;-61
2021/09/21 10:22:56;;;;;;;;;17.25;14.25;;;;;18.26;49.44;102620.22;4918623;28;45272;-61
2021/09/21 10:25:33;;;;;;;;;14.25;14.25;;;;;18.31;49.03;102620.78;4916431;28;45348;-61
2021/09/21 10:27:59;;;;;;;;;18.50;14.00;;;;;18.32;49.25;102611.81;4916364;28;45344;-61
2021/09/21 10:30:31;;;;;;;;;17.00;16.00;;;;;18.39;48.68;102618.50;4917980;28;45463;-61
2021/09/21 10:32:58;;;;;;;;;20.25;18.00;;;;;18.39;48.54;102624.69;4916987;28;45270;-61
2021/09/21 10:35:32;;;;;;;;;21.00;16.00;;;;;18.45;49.00;102618.13;4916401;28;45336;-61
2021/09/21 10:37:58;;;;;;;;;18.00;15.75;;;;;18.42;48.83;102623.66;4915054;28;45401;-61
2021/09/21 10:40:37;;;;;;;;;21.25;20.75;;;;;18.39;49.05;102616.69;4916840;28;45459;-60
2021/09/21 10:43:06;;;;;;;;;17.00;14.75;;;;;18.46;49.48;102618.97;4914780;28;45363;-62
2021/09/21 10:45:32;;;;;;;;;18.00;15.75;;;;;18.58;48.97;102620.88;4916541;28;45295;-61
2021/09/21 10:48:04;;;;;;;;;16.75;16.75;;;;;18.63;48.33;102614.28;4915335;28;45362;-60
2021/09/21 10:50:37;;;;;;;;;21.25;17.75;;;;;18.64;48.83;102617.81;4918374;28;45332;-61
2021/09/21 10:53:08;;;;;;;;;23.00;18.25;;;;;18.71;48.63;102624.50;4917034;28;45447;-60
2021/09/21 10:55:37;;;;;;;;;21.50;20.75;;;;;18.73;48.56;102619.09;4917561;28;45633;-60
2021/09/21 10:58:04;;;;;;;;;17.00;17.00;;;;;18.77;48.38;102623.25;4915266;28;45467;-61
2021/09/21 11:00:34;;;;;;;;;19.50;18.25;;;;;18.82;48.41;102615.81;4915096;28;45417;-61
2021/09/21 11:03:02;;;;;;;;;23.00;18.25;;;;;18.82;48.17;102621.16;4918760;28;45467;-62
2021/09/21 11:05:27;;;;;;;;;19.75;13.75;;;;;18.93;48.34;102616.84;4898515;28;45489;-61
2021/09/21 11:07:57;;;;;;;;;21.25;16.75;;;;;18.98;48.25;102611.22;4917562;28;45470;-61
2021/09/21 11:10:28;;;;;;;;;24.50;21.50;;;;;19.03;48.68;102611.75;4915334;28;45341;-61
2021/09/21 11:12:53;;;;;;;;;26.00;20.50;;;;;19.06;48.02;102606.22;4915167;28;45239;-61
2021/09/21 11:15:23;;;;;;;;;20.75;19.25;;;;;19.02;48.20;102609.19;4914164;28;45304;-61
2021/09/21 11:17:52;;;;;;;;;26.25;22.00;;;;;18.99;47.92;102606.72;4915909;28;45498;-61
2021/09/21 11:20:18;;;;;;;;;19.75;19.50;;;;;18.98;47.83;102605.88;4914428;28;45481;-61